createdAt,value
2018-02-17T00:01:14.340Z,101077.36
2018-02-17T00:04:16.301Z,101078.16
2018-02-17T00:07:17.681Z,101086.80
2018-02-17T00:10:19.799Z,101081.34
2018-02-17T00:13:21.514Z,101082.36
2018-02-17T00:16:23.407Z,101064.27
2018-02-17T00:19:24.791Z,101066.75
2018-02-17T00:22:26.386Z,101055.92
2018-02-17T00:25:27.892Z,101046.55
2018-02-17T00:28:29.909Z,101048.30
2018-02-17T00:31:32.114Z,101044.45
2018-02-17T00:34:34.228Z,101041.80
2018-02-17T00:37:36.539Z,101025.19
2018-02-17T00:40:39.005Z,101035.91
2018-02-17T00:43:40.893Z,101036.92
2018-02-17T00:46:42.287Z,101030.53
2018-02-17T00:49:43.694Z,101029.70
2018-02-17T00:52:45.857Z,101020.92
2018-02-17T00:55:47.780Z,101004.55
2018-02-17T00:58:49.973Z,101017.56
2018-02-17T01:01:52.852Z,101019.54
2018-02-17T01:04:54.296Z,101012.84
2018-02-17T01:07:57.447Z,101001.84
2018-02-17T01:10:59.985Z,100993.94
2018-02-17T01:14:01.667Z,101004.36
2018-02-17T01:17:03.768Z,100989.39
2018-02-17T01:20:05.539Z,100990.96
2018-02-17T01:23:06.943Z,100968.91
2018-02-17T01:26:08.283Z,100968.77
2018-02-17T01:29:10.394Z,100973.66
2018-02-17T01:32:12.476Z,100966.84
2018-02-17T01:35:13.807Z,100966.89
2018-02-17T01:38:15.128Z,100957.59
2018-02-17T01:41:16.448Z,100952.68
2018-02-17T01:44:17.799Z,100948.84
2018-02-17T01:47:19.148Z,100954.63
2018-02-17T01:50:31.596Z,100941.89
2018-02-17T01:53:32.938Z,100932.49
2018-02-17T01:56:34.263Z,100938.91
2018-02-17T02:02:43.530Z,100957.26
2018-02-17T02:05:44.820Z,100953.36
2018-02-17T02:11:54.322Z,100946.09
2018-02-17T02:14:56.397Z,100947.62
2018-02-17T02:17:57.763Z,100945.94
2018-02-17T02:20:59.103Z,100952.27
2018-02-17T02:24:00.424Z,100947.39
2018-02-17T02:27:01.747Z,100948.34
2018-02-17T02:30:03.081Z,100944.78
2018-02-17T02:33:04.429Z,100943.58
2018-02-17T02:36:05.768Z,100929.66
2018-02-17T02:39:07.830Z,100935.48
2018-02-17T02:42:09.184Z,100937.30
2018-02-17T02:45:10.507Z,100932.73
2018-02-17T02:48:11.829Z,100934.56
2018-02-17T02:51:13.172Z,100930.41
2018-02-17T02:54:14.476Z,100935.14
2018-02-17T02:57:16.537Z,100937.45
2018-02-17T03:00:17.873Z,100927.51
2018-02-17T03:03:19.213Z,100925.52
2018-02-17T03:06:20.560Z,100928.78
2018-02-17T03:09:21.894Z,100937.19
2018-02-17T03:12:23.962Z,100926.70
2018-02-17T03:15:25.349Z,100925.56
2018-02-17T03:18:26.672Z,100921.25
2018-02-17T03:21:28.000Z,100908.04
2018-02-17T03:24:29.371Z,100906.65
2018-02-17T03:27:30.727Z,100905.62
2018-02-17T03:30:32.051Z,100903.84
2018-02-17T03:33:33.391Z,100894.19
2018-02-17T03:36:34.695Z,100896.43
2018-02-17T03:39:36.375Z,100890.66
2018-02-17T03:42:37.704Z,100888.97
2018-02-17T03:45:39.764Z,100890.92
2018-02-17T03:48:41.824Z,100876.54
2018-02-17T03:51:43.142Z,100878.40
2018-02-17T03:54:44.443Z,100875.84
2018-02-17T03:57:45.731Z,100876.88
2018-02-17T04:00:47.811Z,100874.09
2018-02-17T04:03:49.112Z,100872.66
2018-02-17T04:06:51.188Z,100858.00
2018-02-17T04:09:52.518Z,100859.11
2018-02-17T04:12:53.874Z,100852.98
2018-02-17T04:15:55.203Z,100842.86
2018-02-17T04:18:56.534Z,100849.75
2018-02-17T04:21:58.605Z,100834.15
2018-02-17T04:24:59.927Z,100849.84
2018-02-17T04:28:01.251Z,100844.50
2018-02-17T04:31:02.575Z,100841.01
2018-02-17T04:34:03.913Z,100832.26
2018-02-17T04:37:05.258Z,100848.48
2018-02-17T04:40:09.587Z,100838.69
2018-02-17T04:43:15.814Z,100836.05
2018-02-17T04:46:23.207Z,100822.92
2018-02-17T04:49:26.335Z,100807.25
2018-02-17T04:56:09.764Z,100816.49
2018-02-17T05:13:19.639Z,100796.25
2018-02-17T05:16:27.732Z,100792.56
2018-02-17T05:23:30.131Z,100794.48
2018-02-17T05:26:36.341Z,100793.53
2018-02-17T05:29:38.718Z,100780.52
2018-02-17T05:32:45.851Z,100777.34
2018-02-17T05:35:52.054Z,100771.37
2018-02-17T05:38:54.293Z,100767.30
2018-02-17T05:45:34.689Z,100773.60
2018-02-17T05:48:36.964Z,100782.02
2018-02-17T05:51:38.304Z,100771.63
2018-02-17T05:54:40.348Z,100781.95
2018-02-17T05:57:41.682Z,100779.94
2018-02-17T06:00:43.006Z,100775.11
2018-02-17T06:03:44.340Z,100777.26
2018-02-17T06:06:45.688Z,100783.70
2018-02-17T06:09:47.044Z,100786.25
2018-02-17T06:12:48.378Z,100785.41
2018-02-17T06:15:49.700Z,100784.42
2018-02-17T06:18:51.013Z,100783.23
2018-02-17T06:21:53.082Z,100784.83
2018-02-17T06:24:54.408Z,100774.00
2018-02-17T06:27:56.462Z,100771.56
2018-02-17T06:30:57.783Z,100769.09
2018-02-17T06:33:59.875Z,100780.50
2018-02-17T06:37:01.962Z,100774.62
2018-02-17T06:40:04.053Z,100767.14
2018-02-17T06:43:06.143Z,100758.30
2018-02-17T06:46:07.487Z,100753.02
2018-02-17T06:49:08.819Z,100730.21
2018-02-17T06:52:10.903Z,100739.64
2018-02-17T06:55:12.224Z,100738.92
2018-02-17T06:58:13.563Z,100727.63
2018-02-17T07:01:14.992Z,100718.43
2018-02-17T07:04:16.308Z,100725.80
2018-02-17T07:07:17.624Z,100733.09
2018-02-17T07:10:18.986Z,100738.44
2018-02-17T07:13:21.117Z,100745.11
2018-02-17T07:16:22.496Z,100739.78
2018-02-17T07:19:23.890Z,100732.58
2018-02-17T07:22:25.472Z,100734.47
2018-02-17T07:25:26.764Z,100731.04
2018-02-17T07:28:28.127Z,100740.86
2018-02-17T07:31:29.472Z,100739.59
2018-02-17T07:34:31.620Z,100735.11
2018-02-17T07:37:33.002Z,100738.27
2018-02-17T07:40:34.351Z,100741.43
2018-02-17T07:43:36.543Z,100734.38
2018-02-17T07:46:38.640Z,100723.31
2018-02-17T07:49:40.703Z,100724.38
2018-02-17T07:52:42.036Z,100730.58
2018-02-17T07:55:44.095Z,100714.55
2018-02-17T07:58:45.387Z,100722.13
2018-02-17T08:01:46.719Z,100727.83
2018-02-17T08:04:48.012Z,100732.77
2018-02-17T08:07:49.328Z,100713.69
2018-02-17T08:10:50.652Z,100717.59
2018-02-17T08:13:51.956Z,100713.36
2018-02-17T08:16:53.255Z,100714.67
2018-02-17T08:19:54.548Z,100717.28
2018-02-17T08:22:55.856Z,100715.08
2018-02-17T08:25:57.144Z,100721.70
2018-02-17T08:28:58.461Z,100726.27
2018-02-17T08:31:59.760Z,100728.98
2018-02-17T08:35:01.132Z,100720.24
2018-02-17T08:38:02.440Z,100716.51
2018-02-17T08:41:04.459Z,100722.31
2018-02-17T08:44:05.760Z,100711.31
2018-02-17T08:47:07.060Z,100717.02
2018-02-17T08:50:08.344Z,100702.62
2018-02-17T08:53:09.647Z,100705.41
2018-02-17T08:56:11.686Z,100705.02
2018-02-17T08:59:13.006Z,100712.90
2018-02-17T09:02:14.299Z,100712.12
2018-02-17T09:05:15.619Z,100711.23
2018-02-17T09:08:16.931Z,100695.07
2018-02-17T09:11:18.297Z,100701.64
2018-02-17T09:14:19.599Z,100706.55
2018-02-17T09:17:21.019Z,100717.61
2018-02-17T09:20:23.130Z,100710.11
2018-02-17T09:23:24.473Z,100695.27
2018-02-17T09:26:25.854Z,100704.84
2018-02-17T09:29:27.935Z,100699.80
2018-02-17T09:32:29.259Z,100704.84
2018-02-17T09:35:30.651Z,100708.92
2018-02-17T09:38:31.951Z,100705.79
2018-02-17T09:41:33.263Z,100717.63
2018-02-17T09:44:34.582Z,100718.87
2018-02-17T09:47:35.884Z,100715.53
2018-02-17T09:50:37.196Z,100729.53
2018-02-17T09:53:38.570Z,100711.63
2018-02-17T09:56:39.898Z,100721.40
2018-02-17T09:59:41.954Z,100725.72
2018-02-17T10:02:44.755Z,100727.38
2018-02-17T10:05:46.075Z,100717.77
2018-02-17T10:08:48.101Z,100725.33
2018-02-17T10:11:49.463Z,100718.37
2018-02-17T10:14:51.530Z,100714.77
2018-02-17T10:17:52.824Z,100718.81
2018-02-17T10:20:54.169Z,100725.31
2018-02-17T10:23:55.692Z,100721.83
2018-02-17T10:26:57.763Z,100720.18
2018-02-17T10:29:59.169Z,100721.17
2018-02-17T10:33:01.176Z,100718.28
2018-02-17T10:36:03.236Z,100725.61
2018-02-17T10:39:04.560Z,100724.12
2018-02-17T10:42:06.635Z,100721.13
2018-02-17T10:45:07.957Z,100723.83
2018-02-17T10:48:09.285Z,100732.64
2018-02-17T10:51:10.619Z,100733.86
2018-02-17T10:54:11.921Z,100738.70
2018-02-17T10:57:13.291Z,100729.39
2018-02-17T11:00:14.628Z,100725.64
2018-02-17T11:03:16.723Z,100727.44
2018-02-17T11:06:18.817Z,100732.70
2018-02-17T11:09:20.119Z,100729.93
2018-02-17T11:12:21.461Z,100737.97
2018-02-17T11:15:22.826Z,100721.80
2018-02-17T11:18:24.176Z,100712.62
2018-02-17T11:21:25.476Z,100721.42
2018-02-17T11:24:27.552Z,100714.38
2018-02-17T11:27:28.868Z,100711.80
2018-02-17T11:30:30.216Z,100712.69
2018-02-17T11:33:31.541Z,100711.34
2018-02-17T11:36:32.889Z,100713.02
2018-02-17T11:39:34.268Z,100709.91
2018-02-17T11:42:35.592Z,100706.50
2018-02-17T11:45:36.934Z,100716.00
2018-02-17T11:48:38.279Z,100708.05
2018-02-17T11:51:39.619Z,100711.62
2018-02-17T11:54:40.956Z,100693.97
2018-02-17T11:57:42.279Z,100720.18
2018-02-17T12:00:43.638Z,100710.10
2018-02-17T12:03:44.967Z,100714.05
2018-02-17T12:06:47.056Z,100707.86
2018-02-17T12:09:49.147Z,100706.14
2018-02-17T12:12:50.463Z,100705.65
2018-02-17T12:15:51.826Z,100705.66
2018-02-17T12:18:53.926Z,100711.32
2018-02-17T12:21:55.980Z,100714.44
2018-02-17T12:24:57.334Z,100716.52
2018-02-17T12:27:58.651Z,100713.95
2018-02-17T12:31:00.069Z,100716.23
2018-02-17T12:34:02.130Z,100705.19
2018-02-17T12:37:03.483Z,100721.05
2018-02-17T12:40:04.787Z,100727.64
2018-02-17T12:43:06.089Z,100724.14
2018-02-17T12:46:07.461Z,100736.38
2018-02-17T12:49:08.788Z,100730.30
2018-02-17T12:52:10.155Z,100727.22
2018-02-17T12:55:11.515Z,100722.37
2018-02-17T12:58:13.561Z,100713.99
2018-02-17T13:01:14.908Z,100709.15
2018-02-17T13:04:16.246Z,100704.28
2018-02-17T13:07:17.624Z,100708.67
2018-02-17T13:10:18.992Z,100721.91
2018-02-17T13:13:20.343Z,100709.68
2018-02-17T13:16:22.424Z,100712.66
2018-02-17T13:19:24.508Z,100698.97
2018-02-17T13:22:26.579Z,100713.56
2018-02-17T13:25:27.923Z,100715.69
2018-02-17T13:28:29.252Z,100710.77
2018-02-17T13:31:30.588Z,100717.85
2018-02-17T13:34:31.898Z,100720.98
2018-02-17T13:37:33.263Z,100723.25
2018-02-17T13:40:34.584Z,100716.17
2018-02-17T13:43:35.925Z,100716.14
2018-02-17T13:46:38.019Z,100725.89
2018-02-17T13:49:39.367Z,100732.91
2018-02-17T13:52:40.717Z,100729.41
2018-02-17T13:55:42.050Z,100731.53
2018-02-17T13:58:43.380Z,100730.27
2018-02-17T14:01:44.719Z,100742.11
2018-02-17T14:04:46.061Z,100738.17
2018-02-17T14:07:48.112Z,100741.27
2018-02-17T14:10:49.432Z,100744.78
2018-02-17T14:13:51.563Z,100744.76
2018-02-17T14:16:52.907Z,100743.02
2018-02-17T14:19:55.010Z,100743.91
2018-02-17T14:22:57.056Z,100750.49
2018-02-17T14:25:58.406Z,100742.59
2018-02-17T14:28:59.755Z,100746.09
2018-02-17T14:32:01.104Z,100749.63
2018-02-17T14:35:02.437Z,100749.16
2018-02-17T14:38:03.750Z,100757.08
2018-02-17T14:41:05.086Z,100756.20
2018-02-17T14:44:07.211Z,100758.36
2018-02-17T14:47:08.529Z,100758.41
2018-02-17T14:50:09.862Z,100761.91
2018-02-17T14:53:11.199Z,100755.30
2018-02-17T14:56:12.524Z,100756.16
2018-02-17T14:59:13.854Z,100746.53
2018-02-17T15:02:15.180Z,100748.74
2018-02-17T15:05:16.586Z,100752.23
2018-02-17T15:08:17.860Z,100756.63
2018-02-17T15:11:19.208Z,100752.22
2018-02-17T15:14:21.246Z,100762.33
2018-02-17T15:17:22.580Z,100750.03
2018-02-17T15:20:24.664Z,100752.67
2018-02-17T15:23:26.027Z,100760.14
2018-02-17T15:26:27.347Z,100749.92
2018-02-17T15:29:29.391Z,100756.98
2018-02-17T15:32:30.697Z,100753.09
2018-02-17T15:35:32.023Z,100765.28
2018-02-17T15:38:33.407Z,100760.53
2018-02-17T15:41:34.754Z,100752.66
2018-02-17T15:44:36.851Z,100764.94
2018-02-17T15:47:38.939Z,100754.83
2018-02-17T15:50:40.275Z,100767.14
2018-02-17T15:53:41.603Z,100775.48
2018-02-17T15:56:42.908Z,100771.93
2018-02-17T15:59:44.218Z,100770.64
2018-02-17T16:02:45.533Z,100769.77
2018-02-17T16:05:46.988Z,100763.58
2018-02-17T16:08:48.339Z,100774.13
2018-02-17T16:11:49.694Z,100775.42
2018-02-17T16:14:51.839Z,100780.25
2018-02-17T16:17:53.175Z,100778.94
2018-02-17T16:20:55.257Z,100781.08
2018-02-17T16:23:56.601Z,100793.84
2018-02-17T16:26:57.920Z,100791.59
2018-02-17T16:29:59.267Z,100797.75
2018-02-17T16:33:00.566Z,100775.30
2018-02-17T16:36:01.899Z,100801.61
2018-02-17T16:39:03.335Z,100800.27
2018-02-17T16:42:04.747Z,100809.89
2018-02-17T16:45:06.132Z,100806.76
2018-02-17T16:48:07.519Z,100808.99
2018-02-17T16:51:08.896Z,100819.47
2018-02-17T16:54:10.291Z,100814.30
2018-02-17T16:57:11.605Z,100821.99
2018-02-17T17:00:13.032Z,100821.45
2018-02-17T17:03:15.158Z,100816.97
2018-02-17T17:06:16.494Z,100829.48
2018-02-17T17:09:17.904Z,100825.38
2018-02-17T17:12:19.269Z,100836.23
2018-02-17T17:15:21.240Z,100827.38
2018-02-17T17:18:22.653Z,100836.88
2018-02-17T17:21:24.772Z,100849.88
2018-02-17T17:24:26.078Z,100846.16
2018-02-17T17:27:27.387Z,100854.95
2018-02-17T17:30:28.735Z,100863.67
2018-02-17T17:33:30.057Z,100874.48
2018-02-17T17:36:32.115Z,100870.72
2018-02-17T17:39:33.502Z,100868.98
2018-02-17T17:42:34.837Z,100870.17
2018-02-17T17:45:36.195Z,100877.53
2018-02-17T17:48:37.572Z,100860.16
2018-02-17T17:51:38.900Z,100883.47
2018-02-17T17:54:40.226Z,100882.84
2018-02-17T17:57:41.571Z,100888.09
2018-02-17T18:00:42.937Z,100896.06
2018-02-17T18:03:44.988Z,100903.80
2018-02-17T18:06:46.411Z,100922.97
2018-02-17T18:09:47.766Z,100908.72
2018-02-17T18:12:49.915Z,100911.48
2018-02-17T18:15:51.216Z,100920.32
2018-02-17T18:18:52.672Z,100915.86
2018-02-17T18:21:53.972Z,100915.34
2018-02-17T18:24:55.414Z,100916.65
2018-02-17T18:27:56.866Z,100918.34
2018-02-17T18:30:59.190Z,100918.68
2018-02-17T18:37:08.814Z,100930.59
2018-02-17T18:40:10.404Z,100931.89
2018-02-17T18:43:11.816Z,100926.19
2018-02-17T18:46:13.183Z,100930.09
2018-02-17T18:49:14.499Z,100926.39
2018-02-17T18:52:15.919Z,100926.38
2018-02-17T18:55:17.558Z,100926.00
2018-02-17T18:58:18.902Z,100922.78
2018-02-17T19:01:20.312Z,100926.34
2018-02-17T19:04:21.714Z,100927.88
2018-02-17T19:07:23.040Z,100934.89
2018-02-17T19:10:24.798Z,100923.91
2018-02-17T19:13:26.840Z,100930.91
2018-02-17T19:16:28.155Z,100922.33
2018-02-17T19:19:29.472Z,100929.97
2018-02-17T19:22:30.792Z,100922.89
2018-02-17T19:25:32.489Z,100927.16
2018-02-17T19:28:33.810Z,100918.98
2018-02-17T19:31:35.889Z,100918.86
2018-02-17T19:34:37.498Z,100928.14
2018-02-17T19:37:39.160Z,100927.38
2018-02-17T19:44:22.908Z,100922.48
2018-02-17T19:47:25.372Z,100916.60
2018-02-17T19:50:26.708Z,100913.20
2018-02-17T19:53:28.846Z,100926.23
2018-02-17T19:56:30.363Z,100919.98
2018-02-17T19:59:32.553Z,100934.05
2018-02-17T20:02:33.914Z,100931.50
2018-02-17T20:05:35.279Z,100933.09
2018-02-17T20:08:36.642Z,100943.00
2018-02-17T20:11:38.722Z,100959.50
2018-02-17T20:14:40.871Z,100954.65
2018-02-17T20:17:42.325Z,100951.70
2018-02-17T20:20:43.735Z,100956.72
2018-02-17T20:23:45.172Z,100965.66
2018-02-17T20:26:46.607Z,100958.22
2018-02-17T20:29:47.930Z,100963.00
2018-02-17T20:32:50.283Z,100961.63
2018-02-17T20:35:52.491Z,100960.94
2018-02-17T20:38:54.013Z,100960.14
2018-02-17T20:41:56.821Z,100962.22
2018-02-17T20:44:58.305Z,100964.98
2018-02-17T20:47:59.877Z,100977.85
2018-02-17T20:51:01.972Z,100984.70
2018-02-17T20:54:03.307Z,100974.68
2018-02-17T20:57:04.859Z,100974.66
2018-02-17T21:00:07.167Z,100991.32
2018-02-17T21:03:08.528Z,100981.38
2018-02-17T21:06:09.968Z,100988.23
2018-02-17T21:09:11.318Z,100999.22
2018-02-17T21:12:13.391Z,100987.13
2018-02-17T21:15:15.448Z,100978.88
2018-02-17T21:18:16.928Z,100993.37
2018-02-17T21:21:18.400Z,101001.39
2018-02-17T21:24:19.715Z,100999.73
2018-02-17T21:27:21.214Z,100999.16
2018-02-17T21:30:23.492Z,101006.82
2018-02-17T21:33:25.088Z,101011.29
2018-02-17T21:36:27.030Z,101020.89
2018-02-17T21:39:28.993Z,101037.73
2018-02-17T21:42:30.864Z,101035.66
2018-02-17T21:45:32.791Z,101040.66
2018-02-17T21:48:35.122Z,101041.85
2018-02-17T21:51:36.548Z,101051.36
2018-02-17T21:54:37.998Z,101040.69
2018-02-17T21:57:39.325Z,101052.02
2018-02-17T22:00:41.594Z,101060.03
2018-02-17T22:03:43.056Z,101067.66
2018-02-17T22:06:45.155Z,101065.52
2018-02-17T22:09:46.529Z,101066.75
2018-02-17T22:12:48.640Z,101066.04
2018-02-17T22:15:50.048Z,101067.20
2018-02-17T22:18:51.419Z,101068.89
2018-02-17T22:21:53.512Z,101063.35
2018-02-17T22:24:55.107Z,101069.88
2018-02-17T22:27:56.572Z,101068.89
2018-02-17T22:30:58.167Z,101073.90
2018-02-17T22:33:59.676Z,101075.89
2018-02-17T22:37:01.624Z,101076.14
2018-02-17T22:40:03.033Z,101075.07
2018-02-17T22:43:04.348Z,101077.49
2018-02-17T22:46:05.703Z,101084.47
2018-02-17T22:49:07.059Z,101074.23
2018-02-17T22:52:08.388Z,101082.27
2018-02-17T22:55:09.744Z,101092.53
2018-02-17T22:58:11.197Z,101084.70
2018-02-17T23:01:13.276Z,101087.41
2018-02-17T23:04:14.639Z,101083.17
2018-02-17T23:07:16.063Z,101082.69
2018-02-17T23:10:17.356Z,101084.20
2018-02-17T23:13:18.679Z,101090.77
2018-02-17T23:16:20.003Z,101082.86
2018-02-17T23:19:21.557Z,101084.37
2018-02-17T23:22:22.900Z,101086.02
2018-02-17T23:25:24.207Z,101084.91
2018-02-17T23:28:25.516Z,101099.17
2018-02-17T23:34:35.773Z,101082.30
2018-02-17T23:37:37.517Z,101079.91
2018-02-17T23:40:38.836Z,101094.37
2018-02-17T23:43:40.187Z,101085.72
2018-02-17T23:46:41.614Z,101082.22
2018-02-17T23:49:42.967Z,101084.92
2018-02-17T23:52:45.011Z,101089.16
2018-02-17T23:55:46.656Z,101089.75
2018-02-17T23:58:48.728Z,101089.71
